sensor_id;sensor_type;location;lat;lon;timestamp;pressure;altitude;pressure_sealevel;temperature;humidity
35878;BME280;21982;49.804;24.072;2023-02-01T00:00:58;96333.34;;;-0.22;75.13
35878;BME280;21982;49.804;24.072;2023-02-01T00:03:23;96494.00;;;0.68;74.68
35878;BME280;21982;49.804;24.072;2023-02-01T00:05:58;96476.72;;;0.66;74.92
35878;BME280;21982;49.804;24.072;2023-02-01T00:08:24;96405.53;;;0.03;75.54
35878;BME280;21982;49.804;24.072;2023-02-01T00:11:01;96478.84;;;0.71;75.02
35878;BME280;21982;49.804;24.072;2023-02-01T00:13:31;96496.59;;;0.68;75.15
35878;BME280;21982;49.804;24.072;2023-02-01T00:16:24;96470.16;;;0.62;75.51
35878;BME280;21982;49.804;24.072;2023-02-01T00:18:55;96461.25;;;0.65;75.64
35878;BME280;21982;49.804;24.072;2023-02-01T00:21:21;96489.38;;;0.61;75.78
35878;BME280;21982;49.804;24.072;2023-02-01T00:23:47;96457.13;;;0.62;75.52
35878;BME280;21982;49.804;24.072;2023-02-01T00:26:19;96476.06;;;0.64;75.42
35878;BME280;21982;49.804;24.072;2023-02-01T00:28:45;96323.75;;;-0.22;75.81
35878;BME280;21982;49.804;24.072;2023-02-01T00:31:11;96255.09;;;-0.56;75.87
35878;BME280;21982;49.804;24.072;2023-02-01T00:33:37;96318.56;;;-0.22;75.59
35878;BME280;21982;49.804;24.072;2023-02-01T00:36:04;96386.53;;;0.20;75.58
35878;BME280;21982;49.804;24.072;2023-02-01T00:38:31;96317.75;;;-0.22;76.14
35878;BME280;21982;49.804;24.072;2023-02-01T00:41:07;96433.47;;;0.56;76.23
35878;BME280;21982;49.804;24.072;2023-02-01T00:43:34;96321.56;;;-0.17;76.36
35878;BME280;21982;49.804;24.072;2023-02-01T00:46:00;96418.41;;;0.50;76.05
35878;BME280;21982;49.804;24.072;2023-02-01T00:48:26;96317.69;;;-0.13;76.18
35878;BME280;21982;49.804;24.072;2023-02-01T00:50:51;96288.59;;;-0.26;76.41
35878;BME280;21982;49.804;24.072;2023-02-01T00:53:17;96254.13;;;-0.55;76.27
35878;BME280;21982;49.804;24.072;2023-02-01T00:55:48;96134.94;;;-1.23;75.77
35878;BME280;21982;49.804;24.072;2023-02-01T00:58:14;96374.81;;;0.34;76.43
35878;BME280;21982;49.804;24.072;2023-02-01T01:00:40;96212.88;;;-0.68;76.24
35878;BME280;21982;49.804;24.072;2023-02-01T01:03:06;96368.94;;;0.32;76.25
35878;BME280;21982;49.804;24.072;2023-02-01T01:05:48;96363.00;;;0.12;76.76
35878;BME280;21982;49.804;24.072;2023-02-01T01:08:15;96309.69;;;-0.02;76.52
35878;BME280;21982;49.804;24.072;2023-02-01T01:10:42;96216.66;;;-0.62;76.49
35878;BME280;21982;49.804;24.072;2023-02-01T01:13:08;95972.94;;;-2.22;76.28
35878;BME280;21982;49.804;24.072;2023-02-01T01:15:38;96265.09;;;-0.34;76.50
35878;BME280;21982;49.804;24.072;2023-02-01T01:18:04;96378.28;;;0.43;77.38
35878;BME280;21982;49.804;24.072;2023-02-01T01:20:30;96374.72;;;0.44;76.87
35878;BME280;21982;49.804;24.072;2023-02-01T01:22:55;96371.44;;;0.24;77.06
35878;BME280;21982;49.804;24.072;2023-02-01T01:25:20;96281.59;;;-0.25;77.20
35878;BME280;21982;49.804;24.072;2023-02-01T01:27:46;96357.59;;;0.41;77.29
35878;BME280;21982;49.804;24.072;2023-02-01T01:30:12;96113.16;;;-1.12;77.02
35878;BME280;21982;49.804;24.072;2023-02-01T01:32:38;95904.38;;;-2.37;76.83
35878;BME280;21982;49.804;24.072;2023-02-01T01:35:04;96351.06;;;0.37;77.70
35878;BME280;21982;49.804;24.072;2023-02-01T01:37:29;96278.13;;;0.02;77.44
35878;BME280;21982;49.804;24.072;2023-02-01T01:39:55;96330.06;;;0.39;77.26
35878;BME280;21982;49.804;24.072;2023-02-01T01:42:21;96334.16;;;0.41;77.57
35878;BME280;21982;49.804;24.072;2023-02-01T01:47:21;96304.56;;;0.24;77.65
35878;BME280;21982;49.804;24.072;2023-02-01T01:49:46;96050.59;;;-1.46;77.39
35878;BME280;21982;49.804;24.072;2023-02-01T01:52:12;96167.44;;;-0.64;77.69
35878;BME280;21982;49.804;24.072;2023-02-01T01:54:41;96312.06;;;0.45;77.84
35878;BME280;21982;49.804;24.072;2023-02-01T01:57:11;96304.94;;;0.47;78.15
35878;BME280;21982;49.804;24.072;2023-02-01T01:59:40;96191.28;;;-0.33;77.95
35878;BME280;21982;49.804;24.072;2023-02-01T02:02:07;96298.09;;;0.46;78.04
35878;BME280;21982;49.804;24.072;2023-02-01T02:04:33;96110.66;;;-0.69;78.09
35878;BME280;21982;49.804;24.072;2023-02-01T02:07:03;96196.38;;;-0.14;78.14
35878;BME280;21982;49.804;24.072;2023-02-01T02:09:29;96294.50;;;0.47;77.63
35878;BME280;21982;49.804;24.072;2023-02-01T02:11:54;95991.09;;;-1.85;78.12
35878;BME280;21982;49.804;24.072;2023-02-01T02:14:22;96113.13;;;-0.67;78.20
35878;BME280;21982;49.804;24.072;2023-02-01T02:16:54;96289.59;;;0.44;78.64
35878;BME280;21982;49.804;24.072;2023-02-01T02:22:17;96281.47;;;0.47;78.05
35878;BME280;21982;49.804;24.072;2023-02-01T02:28:04;96282.44;;;0.46;78.38
35878;BME280;21982;49.804;24.072;2023-02-01T02:36:36;96278.66;;;0.41;78.68
35878;BME280;21982;49.804;24.072;2023-02-01T02:51:05;96264.81;;;0.40;79.28
35878;BME280;21982;49.804;24.072;2023-02-01T02:54:17;96196.06;;;-0.11;78.96
35878;BME280;21982;49.804;24.072;2023-02-01T02:57:06;96088.09;;;-0.68;79.03
35878;BME280;21982;49.804;24.072;2023-02-01T02:59:52;96084.63;;;-0.77;79.54
35878;BME280;21982;49.804;24.072;2023-02-01T03:02:37;96083.69;;;-1.03;79.30
35878;BME280;21982;49.804;24.072;2023-02-01T03:05:22;96253.69;;;0.12;79.52
35878;BME280;21982;49.804;24.072;2023-02-01T03:07:55;96237.72;;;0.51;79.43
35878;BME280;21982;49.804;24.072;2023-02-01T03:13:28;96215.34;;;0.40;79.91
35878;BME280;21982;49.804;24.072;2023-02-01T03:18:55;95973.25;;;-1.07;79.56
35878;BME280;21982;49.804;24.072;2023-02-01T03:21:26;96167.25;;;0.26;79.79
35878;BME280;21982;49.804;24.072;2023-02-01T03:23:55;96253.56;;;0.83;79.98
35878;BME280;21982;49.804;24.072;2023-02-01T03:26:23;96023.41;;;-0.53;79.83
35878;BME280;21982;49.804;24.072;2023-02-01T03:28:55;95967.06;;;-0.88;79.40
35878;BME280;21982;49.804;24.072;2023-02-01T03:31:22;96136.84;;;0.27;80.16
35878;BME280;21982;49.804;24.072;2023-02-01T03:33:47;96148.59;;;0.39;79.78
35878;BME280;21982;49.804;24.072;2023-02-01T03:36:26;96250.50;;;1.14;80.02
35878;BME280;21982;49.804;24.072;2023-02-01T03:39:02;96100.53;;;0.25;79.89
35878;BME280;21982;49.804;24.072;2023-02-01T03:41:42;96235.88;;;1.21;79.73
35878;BME280;21982;49.804;24.072;2023-02-01T03:44:14;96190.00;;;1.02;80.23
35878;BME280;21982;49.804;24.072;2023-02-01T03:47:08;96247.19;;;1.38;79.98
35878;BME280;21982;49.804;24.072;2023-02-01T03:49:51;96147.28;;;0.95;79.77
35878;BME280;21982;49.804;24.072;2023-02-01T03:52:22;96063.22;;;0.51;79.63
35878;BME280;21982;49.804;24.072;2023-02-01T03:54:51;96201.50;;;1.25;79.53
35878;BME280;21982;49.804;24.072;2023-02-01T03:57:23;96104.22;;;0.83;79.84
35878;BME280;21982;49.804;24.072;2023-02-01T03:59:51;96153.00;;;0.98;79.96
35878;BME280;21982;49.804;24.072;2023-02-01T04:02:17;96226.25;;;1.63;80.22
35878;BME280;21982;49.804;24.072;2023-02-01T04:04:42;96216.31;;;1.67;79.76
35878;BME280;21982;49.804;24.072;2023-02-01T04:07:08;95848.28;;;-1.04;79.18
35878;BME280;21982;49.804;24.072;2023-02-01T04:09:33;96219.56;;;1.69;79.89
35878;BME280;21982;49.804;24.072;2023-02-01T04:11:58;96156.81;;;1.20;79.82
35878;BME280;21982;49.804;24.072;2023-02-01T04:14:24;96221.19;;;1.78;79.07
35878;BME280;21982;49.804;24.072;2023-02-01T04:16:49;96002.88;;;0.21;79.14
35878;BME280;21982;49.804;24.072;2023-02-01T04:19:14;96153.22;;;1.13;79.17
35878;BME280;21982;49.804;24.072;2023-02-01T04:21:40;95903.75;;;-0.61;79.03
35878;BME280;21982;49.804;24.072;2023-02-01T04:24:06;96209.59;;;1.56;79.38
35878;BME280;21982;49.804;24.072;2023-02-01T04:26:31;96202.03;;;1.45;79.39
35878;BME280;21982;49.804;24.072;2023-02-01T04:28:56;96222.13;;;1.53;79.44
35878;BME280;21982;49.804;24.072;2023-02-01T04:31:22;96216.56;;;1.48;79.88
35878;BME280;21982;49.804;24.072;2023-02-01T04:33:55;96260.00;;;1.65;79.74
35878;BME280;21982;49.804;24.072;2023-02-01T04:36:22;96253.47;;;1.61;79.42
35878;BME280;21982;49.804;24.072;2023-02-01T04:38:49;96194.28;;;1.19;79.83
35878;BME280;21982;49.804;24.072;2023-02-01T04:41:15;96166.81;;;0.91;80.40
35878;BME280;21982;49.804;24.072;2023-02-01T04:43:44;96278.75;;;1.60;79.90
35878;BME280;21982;49.804;24.072;2023-02-01T04:46:09;96281.53;;;1.67;80.46
35878;BME280;21982;49.804;24.072;2023-02-01T04:48:34;96138.31;;;0.89;79.79
35878;BME280;21982;49.804;24.072;2023-02-01T04:51:00;96223.22;;;1.42;80.22
35878;BME280;21982;49.804;24.072;2023-02-01T04:53:25;96032.88;;;-0.01;80.13
35878;BME280;21982;49.804;24.072;2023-02-01T04:55:51;96241.00;;;1.47;80.00
35878;BME280;21982;49.804;24.072;2023-02-01T04:58:17;96182.03;;;1.04;79.95
35878;BME280;21982;49.804;24.072;2023-02-01T05:00:42;95850.44;;;-1.35;79.50
35878;BME280;21982;49.804;24.072;2023-02-01T05:03:07;95747.19;;;-1.67;79.24
35878;BME280;21982;49.804;24.072;2023-02-01T05:05:33;96289.06;;;1.78;79.90
35878;BME280;21982;49.804;24.072;2023-02-01T05:07:58;96274.41;;;1.85;80.44
35878;BME280;21982;49.804;24.072;2023-02-01T05:10:24;96202.06;;;1.11;80.29
35878;BME280;21982;49.804;24.072;2023-02-01T05:12:49;96287.34;;;1.95;80.14
35878;BME280;21982;49.804;24.072;2023-02-01T05:15:33;95871.44;;;-0.59;79.97
35878;BME280;21982;49.804;24.072;2023-02-01T05:17:58;96171.47;;;1.13;79.80
35878;BME280;21982;49.804;24.072;2023-02-01T05:20:24;96287.50;;;2.01;79.65
35878;BME280;21982;49.804;24.072;2023-02-01T05:22:49;95954.31;;;-0.30;79.29
35878;BME280;21982;49.804;24.072;2023-02-01T05:25:15;96298.47;;;2.05;79.55
35878;BME280;21982;49.804;24.072;2023-02-01T05:27:40;96308.09;;;2.05;79.68
35878;BME280;21982;49.804;24.072;2023-02-01T05:30:07;96300.56;;;2.10;79.83
35878;BME280;21982;49.804;24.072;2023-02-01T05:32:32;96351.16;;;2.09;79.21
35878;BME280;21982;49.804;24.072;2023-02-01T05:34:58;95934.47;;;-0.31;79.14
35878;BME280;21982;49.804;24.072;2023-02-01T05:37:23;95766.94;;;-1.74;79.12
35878;BME280;21982;49.804;24.072;2023-02-01T05:39:49;96314.44;;;2.02;79.89
35878;BME280;21982;49.804;24.072;2023-02-01T05:42:14;96317.72;;;2.04;79.44
35878;BME280;21982;49.804;24.072;2023-02-01T05:44:40;96295.63;;;1.90;79.25
35878;BME280;21982;49.804;24.072;2023-02-01T05:47:06;96086.88;;;0.57;79.34
35878;BME280;21982;49.804;24.072;2023-02-01T05:49:31;96327.84;;;2.15;79.00
35878;BME280;21982;49.804;24.072;2023-02-01T05:51:56;96331.28;;;2.16;78.89
35878;BME280;21982;49.804;24.072;2023-02-01T05:54:22;95957.31;;;-0.17;78.97
35878;BME280;21982;49.804;24.072;2023-02-01T05:56:47;96213.91;;;1.40;79.23
35878;BME280;21982;49.804;24.072;2023-02-01T05:59:12;96378.47;;;2.22;79.15
35878;BME280;21982;49.804;24.072;2023-02-01T06:01:38;96302.19;;;1.94;78.66
35878;BME280;21982;49.804;24.072;2023-02-01T06:04:03;96326.84;;;2.00;78.74
35878;BME280;21982;49.804;24.072;2023-02-01T06:06:29;96330.25;;;2.09;78.76
35878;BME280;21982;49.804;24.072;2023-02-01T06:08:54;96350.59;;;2.31;79.32
35878;BME280;21982;49.804;24.072;2023-02-01T06:11:19;96354.34;;;2.37;78.98
35878;BME280;21982;49.804;24.072;2023-02-01T06:13:45;96172.16;;;1.23;78.69
35878;BME280;21982;49.804;24.072;2023-02-01T06:16:10;96356.16;;;2.36;78.66
35878;BME280;21982;49.804;24.072;2023-02-01T06:18:35;95933.56;;;-0.22;78.05
35878;BME280;21982;49.804;24.072;2023-02-01T06:21:01;96338.00;;;2.26;78.58
35878;BME280;21982;49.804;24.072;2023-02-01T06:23:29;96356.50;;;2.41;78.02
35878;BME280;21982;49.804;24.072;2023-02-01T06:26:03;96164.03;;;1.26;77.67
35878;BME280;21982;49.804;24.072;2023-02-01T06:28:30;96360.41;;;2.37;77.95
35878;BME280;21982;49.804;24.072;2023-02-01T06:30:56;96332.13;;;2.24;77.90
35878;BME280;21982;49.804;24.072;2023-02-01T06:33:23;96309.06;;;2.12;78.09
35878;BME280;21982;49.804;24.072;2023-02-01T06:35:56;96330.63;;;2.22;77.70
35878;BME280;21982;49.804;24.072;2023-02-01T06:38:22;96391.75;;;2.45;77.90
35878;BME280;21982;49.804;24.072;2023-02-01T06:40:52;96260.00;;;1.65;77.54
35878;BME280;21982;49.804;24.072;2023-02-01T06:43:18;96300.03;;;1.90;77.84
35878;BME280;21982;49.804;24.072;2023-02-01T06:45:44;96388.47;;;2.43;78.50
35878;BME280;21982;49.804;24.072;2023-02-01T06:48:09;96302.94;;;1.79;77.61
35878;BME280;21982;49.804;24.072;2023-02-01T06:50:35;96383.28;;;2.51;77.60
35878;BME280;21982;49.804;24.072;2023-02-01T06:53:00;96181.31;;;1.27;77.36
35878;BME280;21982;49.804;24.072;2023-02-01T06:55:26;96173.66;;;1.34;77.43
35878;BME280;21982;49.804;24.072;2023-02-01T06:57:55;96356.63;;;2.48;77.07
35878;BME280;21982;49.804;24.072;2023-02-01T07:00:21;96382.81;;;2.64;77.23
35878;BME280;21982;49.804;24.072;2023-02-01T07:02:47;96363.00;;;2.45;77.14
35878;BME280;21982;49.804;24.072;2023-02-01T07:05:12;96205.00;;;1.50;76.82
35878;BME280;21982;49.804;24.072;2023-02-01T07:07:38;96386.41;;;2.71;77.23
35878;BME280;21982;49.804;24.072;2023-02-01T11:28:14;96248.16;;;3.87;71.66
35878;BME280;21982;49.804;24.072;2023-02-01T11:30:43;96250.28;;;3.83;71.61
35878;BME280;21982;49.804;24.072;2023-02-01T11:33:15;96246.34;;;3.87;71.59
35878;BME280;21982;49.804;24.072;2023-02-01T11:35:42;96258.28;;;3.90;71.79
35878;BME280;21982;49.804;24.072;2023-02-01T11:38:21;96350.50;;;4.47;71.60
35878;BME280;21982;49.804;24.072;2023-02-01T11:40:47;96352.13;;;4.48;71.66
35878;BME280;21982;49.804;24.072;2023-02-01T11:43:23;96343.63;;;4.46;71.47
35878;BME280;21982;49.804;24.072;2023-02-01T11:45:58;96025.13;;;2.53;71.08
35878;BME280;21982;49.804;24.072;2023-02-01T11:48:26;96336.19;;;4.27;71.36
35878;BME280;21982;49.804;24.072;2023-02-01T11:53:59;96295.03;;;4.04;71.43
35878;BME280;21982;49.804;24.072;2023-02-01T11:56:35;96353.72;;;4.26;71.17
35878;BME280;21982;49.804;24.072;2023-02-01T12:06:48;96345.53;;;3.82;72.32
35878;BME280;21982;49.804;24.072;2023-02-01T12:09:45;96337.97;;;3.95;72.50
35878;BME280;21982;49.804;24.072;2023-02-01T12:12:42;96337.22;;;4.49;73.17
35878;BME280;21982;49.804;24.072;2023-02-01T12:15:20;96210.31;;;4.58;72.12
35878;BME280;21982;49.804;24.072;2023-02-01T12:18:10;96330.47;;;5.29;71.46
35878;BME280;21982;49.804;24.072;2023-02-01T12:28:46;96341.13;;;5.95;69.72
35878;BME280;21982;49.804;24.072;2023-02-01T12:34:26;96324.63;;;5.57;67.91
35878;BME280;21982;49.804;24.072;2023-02-01T12:44:32;96310.94;;;6.05;67.87
35878;BME280;21982;49.804;24.072;2023-02-01T12:49:50;96142.25;;;5.09;66.22
35878;BME280;21982;49.804;24.072;2023-02-01T12:52:28;96199.25;;;5.15;66.46
35878;BME280;21982;49.804;24.072;2023-02-01T12:55:36;96316.66;;;5.65;66.63
35878;BME280;21982;49.804;24.072;2023-02-01T12:58:17;96067.78;;;4.07;66.97
35878;BME280;21982;49.804;24.072;2023-02-01T13:00:51;96340.31;;;5.50;67.03
35878;BME280;21982;49.804;24.072;2023-02-01T13:03:49;96224.53;;;4.63;66.09
35878;BME280;21982;49.804;24.072;2023-02-01T13:06:31;96083.44;;;3.77;66.62
35878;BME280;21982;49.804;24.072;2023-02-01T13:09:26;96278.84;;;4.92;66.58
35878;BME280;21982;49.804;24.072;2023-02-01T13:11:55;96267.63;;;4.98;66.61
35878;BME280;21982;49.804;24.072;2023-02-01T13:14:25;96202.91;;;4.61;66.12
35878;BME280;21982;49.804;24.072;2023-02-01T13:17:10;96318.00;;;5.17;65.62
35878;BME280;21982;49.804;24.072;2023-02-01T13:20:19;96323.03;;;5.03;66.02
35878;BME280;21982;49.804;24.072;2023-02-01T13:22:51;96322.19;;;5.03;66.04
35878;BME280;21982;49.804;24.072;2023-02-01T13:28:16;96221.56;;;4.21;65.79
35878;BME280;21982;49.804;24.072;2023-02-01T13:42:30;96313.16;;;4.45;66.16
35878;BME280;21982;49.804;24.072;2023-02-01T13:45:00;96219.25;;;3.80;65.98
35878;BME280;21982;49.804;24.072;2023-02-01T13:47:40;96321.53;;;4.41;66.31
35878;BME280;21982;49.804;24.072;2023-02-01T13:50:21;96328.22;;;4.43;66.41
35878;BME280;21982;49.804;24.072;2023-02-01T13:52:57;96311.53;;;4.44;66.43
35878;BME280;21982;49.804;24.072;2023-02-01T13:55:31;96334.47;;;4.42;66.18
35878;BME280;21982;49.804;24.072;2023-02-01T14:00:34;96199.03;;;3.66;66.31
35878;BME280;21982;49.804;24.072;2023-02-01T14:08:11;95834.88;;;1.00;65.92
35878;BME280;21982;49.804;24.072;2023-02-01T14:10:57;95951.09;;;1.82;66.38
35878;BME280;21982;49.804;24.072;2023-02-01T14:21:29;96346.94;;;4.09;67.53
35878;BME280;21982;49.804;24.072;2023-02-01T14:36:59;96094.19;;;2.58;67.77
35878;BME280;21982;49.804;24.072;2023-02-01T14:39:31;96326.81;;;4.01;67.52
35878;BME280;21982;49.804;24.072;2023-02-01T14:42:03;96295.34;;;3.79;67.66
35878;BME280;21982;49.804;24.072;2023-02-01T14:44:32;96047.25;;;2.26;67.28
35878;BME280;21982;49.804;24.072;2023-02-01T14:49:56;96285.22;;;3.67;67.00
35878;BME280;21982;49.804;24.072;2023-02-01T15:01:00;96278.88;;;3.62;67.38
35878;BME280;21982;49.804;24.072;2023-02-01T15:06:00;96303.28;;;3.54;67.08
35878;BME280;21982;49.804;24.072;2023-02-01T15:08:29;96288.63;;;3.37;67.11
35878;BME280;21982;49.804;24.072;2023-02-01T15:10:58;96095.94;;;2.03;66.82
35878;BME280;21982;49.804;24.072;2023-02-01T15:13:27;96277.75;;;3.09;67.08
35878;BME280;21982;49.804;24.072;2023-02-01T15:16:09;96167.06;;;2.29;67.33
35878;BME280;21982;49.804;24.072;2023-02-01T15:18:35;95919.50;;;0.47;67.03
35878;BME280;21982;49.804;24.072;2023-02-01T15:21:03;96333.28;;;3.35;67.36
35878;BME280;21982;49.804;24.072;2023-02-01T15:23:29;96304.56;;;3.03;67.88
35878;BME280;21982;49.804;24.072;2023-02-01T15:25:55;96168.38;;;2.09;68.04
35878;BME280;21982;49.804;24.072;2023-02-01T15:28:21;96340.50;;;3.09;67.71
35878;BME280;21982;49.804;24.072;2023-02-01T15:30:58;96315.34;;;3.00;67.47
35878;BME280;21982;49.804;24.072;2023-02-01T15:33:25;96311.41;;;2.96;68.28
35878;BME280;21982;49.804;24.072;2023-02-01T15:35:56;96243.47;;;2.55;67.93
35878;BME280;21982;49.804;24.072;2023-02-01T15:38:35;96311.75;;;3.09;68.00
35878;BME280;21982;49.804;24.072;2023-02-01T15:46:31;96354.19;;;3.35;68.25
35878;BME280;21982;49.804;24.072;2023-02-01T15:48:59;96314.72;;;2.74;67.66
35878;BME280;21982;49.804;24.072;2023-02-01T15:51:28;96130.53;;;1.88;68.12
35878;BME280;21982;49.804;24.072;2023-02-01T15:53:59;96348.63;;;3.39;67.72
35878;BME280;21982;49.804;24.072;2023-02-01T15:56:34;96374.00;;;3.38;67.60
35878;BME280;21982;49.804;24.072;2023-02-01T15:59:02;96258.50;;;2.61;68.07
35878;BME280;21982;49.804;24.072;2023-02-01T16:01:29;96352.09;;;3.23;67.98
35878;BME280;21982;49.804;24.072;2023-02-01T16:04:25;96367.13;;;3.37;68.34
35878;BME280;21982;49.804;24.072;2023-02-01T16:06:58;96377.25;;;3.40;68.08
35878;BME280;21982;49.804;24.072;2023-02-01T16:09:53;96330.66;;;3.19;67.87
35878;BME280;21982;49.804;24.072;2023-02-01T16:12:30;96276.78;;;2.86;68.23
35878;BME280;21982;49.804;24.072;2023-02-01T16:14:57;96366.63;;;3.42;68.13
35878;BME280;21982;49.804;24.072;2023-02-01T16:17:22;96336.56;;;3.13;68.43
35878;BME280;21982;49.804;24.072;2023-02-01T16:19:48;96179.97;;;2.22;68.15
35878;BME280;21982;49.804;24.072;2023-02-01T16:22:14;96361.38;;;3.42;68.30
35878;BME280;21982;49.804;24.072;2023-02-01T16:24:39;96201.53;;;2.32;68.12
35878;BME280;21982;49.804;24.072;2023-02-01T16:27:05;96295.41;;;2.91;68.40
35878;BME280;21982;49.804;24.072;2023-02-01T16:29:32;96339.00;;;3.15;67.94
35878;BME280;21982;49.804;24.072;2023-02-01T16:31:58;96223.88;;;2.59;68.19
35878;BME280;21982;49.804;24.072;2023-02-01T16:34:24;96210.19;;;2.41;67.89
35878;BME280;21982;49.804;24.072;2023-02-01T16:36:49;96333.44;;;3.18;67.97
35878;BME280;21982;49.804;24.072;2023-02-01T16:39:22;96369.72;;;3.45;67.99
35878;BME280;21982;49.804;24.072;2023-02-01T16:41:48;96390.81;;;3.44;68.01
35878;BME280;21982;49.804;24.072;2023-02-01T16:44:13;96390.81;;;3.44;68.01
35878;BME280;21982;49.804;24.072;2023-02-01T16:46:40;96383.97;;;3.43;67.80
35878;BME280;21982;49.804;24.072;2023-02-01T16:49:17;96222.72;;;2.46;67.60
35878;BME280;21982;49.804;24.072;2023-02-01T16:51:44;96385.09;;;3.40;68.25
35878;BME280;21982;49.804;24.072;2023-02-01T16:54:10;96339.84;;;2.99;67.85
35878;BME280;21982;49.804;24.072;2023-02-01T16:56:36;96386.59;;;3.34;68.21
35878;BME280;21982;49.804;24.072;2023-02-01T16:59:02;96375.31;;;3.34;67.75
35878;BME280;21982;49.804;24.072;2023-02-01T17:01:27;96333.00;;;2.98;67.99
35878;BME280;21982;49.804;24.072;2023-02-01T17:03:53;96321.88;;;2.96;67.88
35878;BME280;21982;49.804;24.072;2023-02-01T17:06:21;96389.19;;;3.34;68.39
35878;BME280;21982;49.804;24.072;2023-02-01T17:08:51;96410.47;;;3.31;68.34
35878;BME280;21982;49.804;24.072;2023-02-01T17:11:17;96332.50;;;2.94;68.17
35878;BME280;21982;49.804;24.072;2023-02-01T17:13:43;96293.78;;;2.65;68.69
35878;BME280;21982;49.804;24.072;2023-02-01T17:16:30;96393.28;;;3.29;68.60
35878;BME280;21982;49.804;24.072;2023-02-01T17:19:06;96375.13;;;3.27;68.27
35878;BME280;21982;49.804;24.072;2023-02-01T17:21:40;96386.91;;;3.23;68.33
35878;BME280;21982;49.804;24.072;2023-02-01T17:24:07;96272.88;;;2.49;68.77
35878;BME280;21982;49.804;24.072;2023-02-01T17:26:35;96380.03;;;3.22;68.65
35878;BME280;21982;49.804;24.072;2023-02-01T17:29:00;96376.13;;;3.18;68.86
35878;BME280;21982;49.804;24.072;2023-02-01T17:31:27;96386.59;;;3.18;69.10
35878;BME280;21982;49.804;24.072;2023-02-01T17:33:52;96034.88;;;0.90;68.64
35878;BME280;21982;49.804;24.072;2023-02-01T17:36:18;96094.28;;;1.37;68.85
35878;BME280;21982;49.804;24.072;2023-02-01T17:38:43;96186.00;;;1.90;68.75
35878;BME280;21982;49.804;24.072;2023-02-01T17:41:10;96377.91;;;3.18;68.85
35878;BME280;21982;49.804;24.072;2023-02-01T17:43:36;96266.50;;;2.44;69.17
35878;BME280;21982;49.804;24.072;2023-02-01T17:46:15;96372.69;;;3.18;69.22
35878;BME280;21982;49.804;24.072;2023-02-01T17:48:43;96371.22;;;3.15;69.50
35878;BME280;21982;49.804;24.072;2023-02-01T17:51:17;96316.16;;;2.84;68.87
35878;BME280;21982;49.804;24.072;2023-02-01T17:53:43;96390.50;;;3.14;69.71
35878;BME280;21982;49.804;24.072;2023-02-01T17:56:16;96039.78;;;1.09;69.20
35878;BME280;21982;49.804;24.072;2023-02-01T17:58:43;96363.88;;;3.11;69.39
35878;BME280;21982;49.804;24.072;2023-02-01T18:01:11;96355.84;;;3.12;69.56
35878;BME280;21982;49.804;24.072;2023-02-01T18:03:37;96266.19;;;2.39;69.47
35878;BME280;21982;49.804;24.072;2023-02-01T18:06:03;96256.06;;;2.35;69.84
35878;BME280;21982;49.804;24.072;2023-02-01T18:08:30;96120.69;;;1.50;69.69
35878;BME280;21982;49.804;24.072;2023-02-01T18:11:00;96349.00;;;2.95;70.09
35878;BME280;21982;49.804;24.072;2023-02-01T18:13:30;96352.59;;;2.94;70.11
35878;BME280;21982;49.804;24.072;2023-02-01T18:15:59;96316.66;;;2.72;70.43
35878;BME280;21982;49.804;24.072;2023-02-01T18:18:26;96284.47;;;2.47;70.02
35878;BME280;21982;49.804;24.072;2023-02-01T18:20:54;96253.91;;;2.23;70.44
35878;BME280;21982;49.804;24.072;2023-02-01T18:23:22;96347.34;;;2.78;70.39
35878;BME280;21982;49.804;24.072;2023-02-01T18:25:48;96350.00;;;2.69;70.50
35878;BME280;21982;49.804;24.072;2023-02-01T18:28:16;96238.50;;;1.79;70.60
35878;BME280;21982;49.804;24.072;2023-02-01T18:30:43;96126.53;;;1.27;71.10
35878;BME280;21982;49.804;24.072;2023-02-01T18:33:13;96294.72;;;2.16;70.42
35878;BME280;21982;49.804;24.072;2023-02-01T18:35:39;96292.91;;;2.00;71.10
35878;BME280;21982;49.804;24.072;2023-02-01T18:38:05;96082.56;;;0.82;70.85
35878;BME280;21982;49.804;24.072;2023-02-01T18:40:33;96254.91;;;2.06;70.67
35878;BME280;21982;49.804;24.072;2023-02-01T18:42:59;96347.69;;;2.58;71.60
35878;BME280;21982;49.804;24.072;2023-02-01T18:45:36;96276.44;;;2.24;70.91
35878;BME280;21982;49.804;24.072;2023-02-01T18:48:03;96211.41;;;1.80;71.26
35878;BME280;21982;49.804;24.072;2023-02-01T18:50:30;96232.13;;;1.74;71.47
35878;BME280;21982;49.804;24.072;2023-02-01T18:52:57;95912.94;;;-0.15;71.11
35878;BME280;21982;49.804;24.072;2023-02-01T18:55:26;96250.31;;;2.08;71.88
35878;BME280;21982;49.804;24.072;2023-02-01T18:57:52;96341.97;;;2.55;71.60
35878;BME280;21982;49.804;24.072;2023-02-01T19:00:18;96015.75;;;0.65;71.90
35878;BME280;21982;49.804;24.072;2023-02-01T22:52:28;96264.84;;;-0.13;80.45
35878;BME280;21982;49.804;24.072;2023-02-01T22:54:54;96312.81;;;0.55;81.01
35878;BME280;21982;49.804;24.072;2023-02-01T22:57:20;96311.13;;;0.90;81.00
35878;BME280;21982;49.804;24.072;2023-02-01T22:59:45;96188.47;;;0.40;81.16
35878;BME280;21982;49.804;24.072;2023-02-01T23:02:11;96316.47;;;1.40;81.61
35878;BME280;21982;49.804;24.072;2023-02-01T23:04:37;96311.50;;;1.55;81.57
35878;BME280;21982;49.804;24.072;2023-02-01T23:07:02;96303.25;;;1.67;80.88
35878;BME280;21982;49.804;24.072;2023-02-01T23:09:27;96229.78;;;1.12;80.83
35878;BME280;21982;49.804;24.072;2023-02-01T23:11:53;96309.16;;;1.86;80.92
35878;BME280;21982;49.804;24.072;2023-02-01T23:14:19;96302.50;;;1.91;80.98
35878;BME280;21982;49.804;24.072;2023-02-01T23:16:46;96302.69;;;1.98;80.71
35878;BME280;21982;49.804;24.072;2023-02-01T23:19:12;96216.56;;;1.48;80.75
35878;BME280;21982;49.804;24.072;2023-02-01T23:21:39;96218.50;;;1.46;80.76
35878;BME280;21982;49.804;24.072;2023-02-01T23:24:05;96304.50;;;2.06;80.61
35878;BME280;21982;49.804;24.072;2023-02-01T23:26:32;96291.41;;;1.97;80.66